createdAt,value
2023-04-02T00:02:46.576Z,99020.60
2023-04-02T00:07:58.444Z,99019.77
2023-04-02T00:13:09.191Z,99029.63
2023-04-02T00:18:18.923Z,99029.04
2023-04-02T00:23:26.602Z,99035.20
2023-04-02T00:28:34.314Z,99039.69
2023-04-02T00:33:45.617Z,99037.88
2023-04-02T00:38:53.360Z,99040.90
2023-04-02T00:44:03.180Z,99055.27
2023-04-02T00:49:16.850Z,99063.14
2023-04-02T00:54:29.676Z,99067.49
2023-04-02T00:59:50.484Z,99078.30
2023-04-02T01:05:00.236Z,99087.69
2023-04-02T01:10:24.411Z,99090.77
2023-04-02T01:15:38.121Z,99095.02
2023-04-02T01:21:07.613Z,99095.66
2023-04-02T01:26:25.025Z,99095.81
2023-04-02T01:31:37.679Z,99106.63
2023-04-02T01:36:51.673Z,99111.95
2023-04-02T01:42:07.958Z,99115.08
2023-04-02T01:47:18.231Z,99124.39
2023-04-02T01:52:38.533Z,99133.52
2023-04-02T01:57:48.752Z,99135.86
2023-04-02T02:02:56.428Z,99145.34
2023-04-02T02:08:04.326Z,99148.89
2023-04-02T02:13:18.002Z,99152.31
2023-04-02T02:18:25.760Z,99162.77
2023-04-02T02:23:33.318Z,99164.90
2023-04-02T02:28:44.365Z,99169.65
2023-04-02T02:33:57.171Z,99177.19
2023-04-02T02:39:15.458Z,99171.36
2023-04-02T02:44:29.318Z,99181.83
2023-04-02T02:49:40.416Z,99184.83
2023-04-02T02:54:50.337Z,99188.71
2023-04-02T02:59:59.711Z,99197.27
2023-04-02T03:05:09.683Z,99203.42
2023-04-02T03:10:24.763Z,99213.03
2023-04-02T03:15:40.137Z,99217.09
2023-04-02T03:20:54.302Z,99220.95
2023-04-02T03:26:10.011Z,99225.16
2023-04-02T03:31:26.957Z,99228.33
2023-04-02T03:36:38.855Z,99231.85
2023-04-02T03:41:52.095Z,99235.26
2023-04-02T03:47:06.088Z,99246.61
2023-04-02T03:52:16.765Z,99249.97
2023-04-02T03:57:31.540Z,99267.10
2023-04-02T04:02:45.164Z,99269.93
2023-04-02T04:07:57.469Z,99273.52
2023-04-02T04:13:14.206Z,99280.88
2023-04-02T04:18:35.324Z,99290.99
2023-04-02T04:23:52.292Z,99298.67
2023-04-02T04:29:10.094Z,99307.59
2023-04-02T04:34:23.366Z,99320.53
2023-04-02T04:39:43.736Z,99334.46
2023-04-02T04:44:57.413Z,99341.98
2023-04-02T04:50:11.615Z,99345.22
2023-04-02T04:55:32.717Z,99355.84
2023-04-02T05:00:46.615Z,99370.52
2023-04-02T05:05:54.737Z,99375.44
2023-04-02T05:11:07.668Z,99377.09
2023-04-02T05:16:23.733Z,99380.48
2023-04-02T05:21:40.446Z,99391.08
2023-04-02T05:26:51.935Z,99397.05
2023-04-02T05:32:06.098Z,99398.65
2023-04-02T05:37:19.339Z,99400.42
2023-04-02T05:42:30.980Z,99403.74
2023-04-02T05:47:44.449Z,99407.46
2023-04-02T05:52:58.801Z,99415.33
2023-04-02T05:58:34.547Z,99422.13
2023-04-02T06:03:52.164Z,99424.96
2023-04-02T06:09:06.047Z,99439.05
2023-04-02T06:14:15.979Z,99445.33
2023-04-02T06:19:29.043Z,99450.39
2023-04-02T06:24:39.333Z,99460.46
2023-04-02T06:29:52.374Z,99462.23
2023-04-02T06:35:00.974Z,99469.67
2023-04-02T06:40:25.000Z,99477.17
2023-04-02T06:45:36.605Z,99487.58
2023-04-02T06:50:56.975Z,99494.40
2023-04-02T06:56:08.103Z,99497.70
2023-04-02T07:01:24.043Z,99508.84
2023-04-02T07:06:32.298Z,99511.34
2023-04-02T07:11:41.241Z,99527.48
2023-04-02T07:16:49.247Z,99528.50
2023-04-02T07:21:57.055Z,99532.86
2023-04-02T07:27:07.920Z,99538.42
2023-04-02T07:32:16.041Z,99549.54
2023-04-02T07:37:23.357Z,99554.41
2023-04-02T07:42:30.865Z,99558.69
2023-04-02T07:47:38.328Z,99556.55
2023-04-02T07:52:46.124Z,99563.28
2023-04-02T07:57:55.689Z,99569.52
2023-04-02T08:03:03.036Z,99571.98
2023-04-02T08:08:10.503Z,99581.69
2023-04-02T08:13:19.086Z,99589.65
2023-04-02T08:18:27.481Z,99595.92
2023-04-02T08:23:35.475Z,99602.17
2023-04-02T08:28:43.251Z,99608.55
2023-04-02T08:33:50.926Z,99618.28
2023-04-02T08:39:01.446Z,99622.80
2023-04-02T08:44:24.146Z,99632.33
2023-04-02T08:49:37.809Z,99639.25
2023-04-02T08:54:45.752Z,99648.80
2023-04-02T09:00:00.483Z,99661.27
2023-04-02T09:05:19.750Z,99669.52
2023-04-02T09:10:35.601Z,99674.33
2023-04-02T09:15:42.720Z,99682.27
2023-04-02T09:20:50.581Z,99687.96
2023-04-02T09:26:04.261Z,99701.32
2023-04-02T09:31:21.671Z,99705.79
2023-04-02T09:36:37.780Z,99712.73
2023-04-02T09:41:50.209Z,99713.73
2023-04-02T09:47:05.260Z,99718.93
2023-04-02T09:52:22.411Z,99733.49
2023-04-02T09:57:30.117Z,99737.80
2023-04-02T10:02:37.746Z,99743.61
2023-04-02T10:07:48.382Z,99748.73
2023-04-02T10:13:01.908Z,99756.96
2023-04-02T10:18:18.627Z,99771.46
2023-04-02T10:23:29.455Z,99774.82
2023-04-02T10:28:55.044Z,99782.16
2023-04-02T10:34:07.380Z,99786.38
2023-04-02T10:39:18.567Z,99791.10
2023-04-02T10:44:44.449Z,99793.05
2023-04-02T10:49:59.893Z,99793.89
2023-04-02T10:55:15.663Z,99795.42
2023-04-02T11:00:28.260Z,99803.39
2023-04-02T11:05:44.562Z,99816.59
2023-04-02T11:10:54.815Z,99825.05
2023-04-02T11:16:02.502Z,99833.40
2023-04-02T11:26:47.717Z,99847.42
2023-04-02T11:32:31.577Z,99856.75
2023-04-02T11:37:43.205Z,99867.92
2023-04-02T11:42:51.709Z,99879.79
2023-04-02T11:48:34.242Z,99883.69
2023-04-02T11:53:44.186Z,99891.14
2023-04-02T11:59:00.120Z,99895.92
2023-04-02T12:04:43.972Z,99904.74
2023-04-02T12:09:54.405Z,99915.10
2023-04-02T12:15:02.783Z,99919.73
2023-04-02T12:20:33.751Z,99923.27
2023-04-02T12:25:42.073Z,99934.35
2023-04-02T12:30:50.624Z,99945.25
2023-04-02T12:36:02.023Z,99948.50
2023-04-02T12:41:22.005Z,99952.27
2023-04-02T12:46:29.700Z,99957.06
2023-04-02T12:51:38.237Z,99966.07
2023-04-02T12:56:45.924Z,99971.92
2023-04-02T13:02:02.103Z,99975.70
2023-04-02T13:07:18.191Z,99976.17
2023-04-02T13:12:34.379Z,99975.36
2023-04-02T13:17:44.119Z,99977.85
2023-04-02T13:22:51.640Z,99984.79
2023-04-02T13:27:59.547Z,99989.11
2023-04-02T13:33:07.171Z,99997.92
2023-04-02T13:38:14.946Z,99999.60
2023-04-02T13:43:23.697Z,100006.70
2023-04-02T13:48:31.048Z,100011.67
2023-04-02T13:53:38.551Z,100012.44
2023-04-02T13:58:47.215Z,100017.21
2023-04-02T14:03:55.411Z,100019.95
2023-04-02T14:09:06.022Z,100027.79
2023-04-02T14:14:36.334Z,100030.02
2023-04-02T14:20:06.848Z,100038.56
2023-04-02T14:25:22.473Z,100042.39
2023-04-02T14:30:38.844Z,100046.02
2023-04-02T14:35:52.171Z,100054.91
2023-04-02T14:41:06.568Z,100050.72
2023-04-02T14:46:14.078Z,100052.15
2023-04-02T14:51:28.548Z,100049.80
2023-04-02T14:56:41.110Z,100055.60
2023-04-02T15:01:51.830Z,100057.63
2023-04-02T15:07:04.758Z,100065.54
2023-04-02T15:12:16.524Z,100072.59
2023-04-02T15:17:24.267Z,100077.99
2023-04-02T15:22:40.092Z,100078.36
2023-04-02T15:28:02.021Z,100084.41
2023-04-02T15:33:36.330Z,100087.05
2023-04-02T15:38:46.449Z,100091.61
2023-04-02T15:44:04.590Z,100097.08
2023-04-02T15:49:28.699Z,100103.96
2023-04-02T15:54:55.064Z,100116.11
2023-04-02T16:00:31.213Z,100127.39
2023-04-02T16:05:44.636Z,100142.05
2023-04-02T16:10:51.893Z,100149.39
2023-04-02T16:16:05.944Z,100161.56
2023-04-02T16:21:16.479Z,100171.45
2023-04-02T16:26:41.011Z,100175.27
2023-04-02T16:31:54.504Z,100177.12
2023-04-02T16:37:10.598Z,100173.20
2023-04-02T16:42:30.087Z,100189.46
2023-04-02T16:47:57.914Z,100200.75
2023-04-02T16:53:15.189Z,100196.27
2023-04-02T16:58:36.506Z,100211.98
2023-04-02T17:04:08.821Z,100219.28
2023-04-02T17:09:22.406Z,100229.84
2023-04-02T17:14:40.670Z,100235.35
2023-04-02T17:19:49.535Z,100247.31
2023-04-02T17:25:00.339Z,100251.59
2023-04-02T17:30:14.873Z,100265.45
2023-04-02T17:35:32.524Z,100272.16
2023-04-02T17:40:44.947Z,100277.88
2023-04-02T17:45:56.682Z,100292.13
2023-04-02T17:51:17.263Z,100306.73
2023-04-02T17:56:40.757Z,100308.59
2023-04-02T18:01:52.594Z,100317.91
2023-04-02T18:07:22.596Z,100322.56
2023-04-02T18:12:43.639Z,100336.48
2023-04-02T18:17:55.467Z,100345.87
2023-04-02T18:23:13.247Z,100354.05
2023-04-02T18:28:48.366Z,100363.44
2023-04-02T18:34:20.264Z,100371.59
2023-04-02T18:39:38.664Z,100377.33
2023-04-02T18:44:57.624Z,100388.95
2023-04-02T18:50:17.629Z,100398.84
2023-04-02T18:55:28.705Z,100409.96
2023-04-02T19:00:40.918Z,100417.91
2023-04-02T19:05:53.631Z,100427.25
2023-04-02T19:11:03.653Z,100435.38
2023-04-02T19:16:35.700Z,100442.80
2023-04-02T19:21:56.218Z,100446.54
2023-04-02T19:27:10.199Z,100450.98
2023-04-02T19:32:29.254Z,100451.58
2023-04-02T19:37:41.999Z,100455.31
2023-04-02T19:42:51.104Z,100462.35
2023-04-02T19:48:00.368Z,100468.50
2023-04-02T19:53:07.705Z,100472.91
2023-04-02T19:58:20.362Z,100475.75
2023-04-02T20:03:28.027Z,100479.45
2023-04-02T20:08:36.658Z,100480.55
2023-04-02T20:13:43.882Z,100485.64
2023-04-02T20:18:51.368Z,100493.84
2023-04-02T20:23:58.585Z,100502.57
2023-04-02T20:29:05.753Z,100519.31
2023-04-02T20:34:14.142Z,100524.91
2023-04-02T20:39:21.978Z,100530.67
2023-04-02T20:44:29.205Z,100527.55
2023-04-02T20:49:36.874Z,100538.52
2023-04-02T20:54:44.248Z,100537.33
2023-04-02T20:59:51.686Z,100544.12
2023-04-02T21:04:59.428Z,100552.13
2023-04-02T21:10:07.288Z,100560.12
2023-04-02T21:15:15.103Z,100565.69
2023-04-02T21:20:22.331Z,100569.49
2023-04-02T21:25:29.654Z,100563.23
2023-04-02T21:30:36.849Z,100580.27
2023-04-02T21:35:44.076Z,100583.73
2023-04-02T21:40:51.301Z,100586.33
2023-04-02T21:46:01.898Z,100587.01
2023-04-02T21:51:14.413Z,100590.81
2023-04-02T21:56:23.118Z,100592.71
2023-04-02T22:01:33.877Z,100594.61
2023-04-02T22:06:43.465Z,100593.90
2023-04-02T22:11:53.137Z,100601.52
2023-04-02T22:17:00.513Z,100608.80
2023-04-02T22:22:07.890Z,100610.32
2023-04-02T22:27:15.207Z,100615.19
2023-04-02T22:32:22.695Z,100619.31
2023-04-02T22:37:34.314Z,100623.63
2023-04-02T22:42:41.512Z,100622.55
2023-04-02T22:47:48.657Z,100629.81
2023-04-02T22:52:56.325Z,100631.72
2023-04-02T22:58:03.529Z,100634.27
2023-04-02T23:03:10.745Z,100637.87
2023-04-02T23:08:18.195Z,100640.97
2023-04-02T23:13:25.623Z,100647.16
2023-04-02T23:18:33.114Z,100653.75
2023-04-02T23:23:40.647Z,100653.70
2023-04-02T23:28:48.507Z,100655.38
2023-04-02T23:33:56.162Z,100659.35
2023-04-02T23:39:08.360Z,100664.00
2023-04-02T23:44:15.898Z,100666.20
2023-04-02T23:49:23.146Z,100666.69
2023-04-02T23:54:30.755Z,100670.80
2023-04-02T23:59:40.455Z,100675.45
